createdAt,value
2022-10-05T00:01:47.036Z,10.40
2022-10-05T00:04:20.430Z,10.50
2022-10-05T00:07:09.916Z,10.50
2022-10-05T00:09:37.157Z,10.50
2022-10-05T00:12:19.249Z,10.50
2022-10-05T00:14:48.350Z,10.50
2022-10-05T00:17:24.728Z,10.50
2022-10-05T00:19:53.918Z,10.50
2022-10-05T00:22:32.524Z,10.50
2022-10-05T00:25:01.968Z,10.50
2022-10-05T00:27:36.807Z,10.50
2022-10-05T00:30:19.015Z,10.50
2022-10-05T00:32:46.623Z,10.50
2022-10-05T00:35:15.770Z,10.50
2022-10-05T00:37:43.190Z,10.50
2022-10-05T00:40:19.019Z,10.60
2022-10-05T00:43:31.175Z,10.50
2022-10-05T00:46:06.409Z,10.50
2022-10-05T00:48:33.416Z,10.50
2022-10-05T00:51:09.782Z,10.50
2022-10-05T00:53:46.811Z,10.50
2022-10-05T00:56:35.660Z,10.50
2022-10-05T00:59:14.439Z,10.50
2022-10-05T01:02:02.741Z,10.50
2022-10-05T01:04:37.813Z,10.50
2022-10-05T01:07:27.525Z,10.50
2022-10-05T01:10:19.037Z,10.60
2022-10-05T01:13:00.917Z,10.60
2022-10-05T01:15:42.272Z,10.60
2022-10-05T01:18:21.470Z,10.60
2022-10-05T01:21:09.253Z,10.60
2022-10-05T01:23:42.202Z,10.60
2022-10-05T01:26:21.181Z,10.60
2022-10-05T01:29:01.020Z,10.60
2022-10-05T01:31:44.152Z,10.60
2022-10-05T01:34:41.066Z,10.70
2022-10-05T01:37:22.854Z,10.70
2022-10-05T01:40:08.496Z,10.70
2022-10-05T01:42:48.658Z,10.60
2022-10-05T01:45:24.823Z,10.70
2022-10-05T01:47:58.672Z,10.70
2022-10-05T01:50:28.571Z,10.70
2022-10-05T01:53:08.188Z,10.70
2022-10-05T01:56:07.347Z,10.80
2022-10-05T01:58:52.359Z,10.70
2022-10-05T02:01:41.520Z,10.80
2022-10-05T02:08:08.433Z,10.70
2022-10-05T02:10:44.206Z,10.70
2022-10-05T02:13:20.607Z,10.70
2022-10-05T02:15:58.113Z,10.70
2022-10-05T02:18:31.548Z,10.70
2022-10-05T02:20:59.856Z,10.80
2022-10-05T02:23:35.330Z,10.80
2022-10-05T02:26:03.330Z,10.70
2022-10-05T02:28:42.269Z,10.80
2022-10-05T02:31:24.158Z,10.80
2022-10-05T02:33:51.346Z,10.80
2022-10-05T02:36:29.761Z,10.80
2022-10-05T02:38:56.756Z,10.90
2022-10-05T02:41:41.848Z,10.90
2022-10-05T02:44:50.273Z,10.90
2022-10-05T02:47:33.671Z,10.90
2022-10-05T02:50:11.579Z,10.90
2022-10-05T02:52:57.517Z,10.90
2022-10-05T02:55:47.617Z,10.90
2022-10-05T02:58:21.188Z,10.90
2022-10-05T03:01:32.075Z,10.90
2022-10-05T03:03:59.078Z,10.90
2022-10-05T03:06:30.548Z,10.90
2022-10-05T03:09:05.282Z,10.90
2022-10-05T03:12:01.009Z,10.90
2022-10-05T03:14:50.246Z,10.80
2022-10-05T03:17:28.455Z,10.90
2022-10-05T03:20:01.696Z,10.80
2022-10-05T03:22:47.067Z,10.90
2022-10-05T03:25:32.714Z,10.90
2022-10-05T03:28:11.373Z,10.90
2022-10-05T03:31:07.956Z,10.90
2022-10-05T03:33:55.250Z,10.90
2022-10-05T03:37:07.069Z,10.90
2022-10-05T03:39:47.097Z,10.90
2022-10-05T03:42:33.365Z,10.90
2022-10-05T03:45:41.983Z,10.90
2022-10-05T03:48:13.215Z,11.00
2022-10-05T03:50:48.096Z,11.00
2022-10-05T03:53:25.647Z,11.00
2022-10-05T03:56:04.700Z,10.90
2022-10-05T03:58:55.964Z,11.00
2022-10-05T04:01:30.630Z,11.00
2022-10-05T04:04:04.202Z,11.10
2022-10-05T04:06:35.914Z,11.00
2022-10-05T04:09:11.195Z,11.00
2022-10-05T04:11:54.873Z,11.00
2022-10-05T04:14:30.784Z,11.00
2022-10-05T04:17:35.827Z,11.00
2022-10-05T04:20:08.126Z,11.00
2022-10-05T04:22:46.207Z,11.00
2022-10-05T04:25:22.800Z,11.00
2022-10-05T04:28:03.550Z,11.10
2022-10-05T04:30:33.185Z,11.10
2022-10-05T04:33:01.112Z,11.10
2022-10-05T04:36:00.856Z,11.10
2022-10-05T04:38:49.593Z,11.10
2022-10-05T04:41:34.775Z,11.10
2022-10-05T04:44:23.410Z,11.10
2022-10-05T04:47:15.772Z,11.10
2022-10-05T04:50:00.822Z,11.10
2022-10-05T04:52:42.875Z,11.20
2022-10-05T04:55:33.768Z,11.20
2022-10-05T04:58:19.631Z,11.20
2022-10-05T05:01:07.816Z,11.30
2022-10-05T05:04:20.091Z,11.20
2022-10-05T05:06:51.710Z,11.30
2022-10-05T05:09:33.812Z,11.30
2022-10-05T05:12:22.242Z,11.30
2022-10-05T05:15:01.626Z,11.30
2022-10-05T05:18:02.292Z,11.30
2022-10-05T05:20:48.119Z,11.30
2022-10-05T05:23:41.664Z,11.20
2022-10-05T05:26:29.974Z,11.20
2022-10-05T05:29:27.469Z,11.20
2022-10-05T05:32:07.259Z,11.30
2022-10-05T05:35:08.538Z,11.30
2022-10-05T05:37:41.404Z,11.30
2022-10-05T05:40:42.304Z,11.30
2022-10-05T05:43:31.109Z,11.30
2022-10-05T05:47:01.931Z,11.30
2022-10-05T05:49:41.929Z,11.30
2022-10-05T05:52:34.822Z,11.30
2022-10-05T05:55:15.484Z,11.30
2022-10-05T05:57:48.791Z,11.30
2022-10-05T06:00:23.474Z,11.30
2022-10-05T06:03:08.748Z,11.30
2022-10-05T06:05:45.196Z,11.30
2022-10-05T06:08:35.454Z,11.30
2022-10-05T06:11:14.552Z,11.30
2022-10-05T06:13:42.807Z,11.30
2022-10-05T06:16:22.307Z,11.30
2022-10-05T06:18:58.910Z,11.30
2022-10-05T06:21:30.806Z,11.30
2022-10-05T06:24:30.036Z,11.30
2022-10-05T06:27:18.457Z,11.40
2022-10-05T06:30:17.802Z,11.50
2022-10-05T06:32:50.861Z,11.50
2022-10-05T06:35:42.818Z,11.50
2022-10-05T06:38:35.213Z,11.60
2022-10-05T06:41:20.812Z,11.70
2022-10-05T06:44:16.930Z,11.90
2022-10-05T06:47:02.867Z,12.00
2022-10-05T06:49:37.209Z,12.10
2022-10-05T06:52:29.018Z,12.30
2022-10-05T06:55:04.901Z,12.40
2022-10-05T06:57:38.016Z,12.60
2022-10-05T07:00:07.658Z,12.60
2022-10-05T07:02:41.710Z,12.60
2022-10-05T07:05:41.861Z,12.60
2022-10-05T07:08:17.939Z,12.70
2022-10-05T07:11:22.366Z,12.60
2022-10-05T07:14:07.265Z,12.50
2022-10-05T07:16:56.219Z,12.60
2022-10-05T07:19:55.879Z,12.90
2022-10-05T07:22:51.913Z,14.10
2022-10-05T07:25:45.142Z,16.30
2022-10-05T07:29:10.784Z,17.50
2022-10-05T07:31:40.520Z,17.60
2022-10-05T07:34:14.311Z,17.70
2022-10-05T07:37:23.681Z,18.00
2022-10-05T07:40:19.467Z,17.70
2022-10-05T07:42:52.324Z,17.30
2022-10-05T07:45:40.593Z,17.10
2022-10-05T07:48:21.633Z,17.70
2022-10-05T07:51:06.593Z,17.90
2022-10-05T07:54:05.043Z,19.40
2022-10-05T07:57:20.196Z,21.20
2022-10-05T08:00:32.597Z,22.90
2022-10-05T08:03:10.406Z,22.20
2022-10-05T08:05:42.507Z,22.90
2022-10-05T08:08:19.829Z,23.40
2022-10-05T08:11:16.061Z,23.40
2022-10-05T08:13:56.493Z,23.40
2022-10-05T08:16:28.405Z,23.90
2022-10-05T08:18:58.530Z,23.10
2022-10-05T08:21:36.564Z,24.00
2022-10-05T08:24:18.476Z,22.90
2022-10-05T08:27:10.591Z,22.60
2022-10-05T08:29:52.709Z,21.50
2022-10-05T08:32:41.524Z,22.00
2022-10-05T08:35:39.571Z,22.30
2022-10-05T08:38:19.709Z,22.00
2022-10-05T08:41:25.485Z,21.70
2022-10-05T08:44:01.137Z,21.10
2022-10-05T08:46:59.278Z,21.10
2022-10-05T08:49:59.941Z,21.50
2022-10-05T08:52:48.634Z,21.50
2022-10-05T08:55:31.596Z,21.50
2022-10-05T08:58:36.042Z,20.80
2022-10-05T09:01:19.354Z,20.00
2022-10-05T09:03:49.403Z,19.40
2022-10-05T09:06:26.988Z,20.10
2022-10-05T09:09:26.246Z,20.20
2022-10-05T09:12:15.241Z,20.60
2022-10-05T09:15:35.791Z,21.20
2022-10-05T09:18:49.920Z,21.10
2022-10-05T09:21:42.296Z,21.10
2022-10-05T09:24:15.392Z,21.10
2022-10-05T09:27:09.804Z,20.60
2022-10-05T09:33:07.169Z,20.00
2022-10-05T09:35:44.647Z,20.60
2022-10-05T09:38:33.440Z,20.70
2022-10-05T09:41:18.319Z,21.00
2022-10-05T09:44:06.209Z,21.40
2022-10-05T09:46:56.698Z,21.40
2022-10-05T09:50:12.006Z,21.50
2022-10-05T09:52:41.852Z,21.10
2022-10-05T09:55:25.669Z,21.00
2022-10-05T09:58:24.903Z,21.00
2022-10-05T10:01:32.470Z,20.70
2022-10-05T10:04:08.062Z,19.60
2022-10-05T10:07:33.483Z,19.00
2022-10-05T10:10:45.666Z,18.80
2022-10-05T10:13:54.066Z,18.40
2022-10-05T10:16:45.915Z,18.10
2022-10-05T10:19:21.874Z,17.60
2022-10-05T10:22:26.002Z,17.30
2022-10-05T10:25:02.007Z,17.10
2022-10-05T10:28:10.806Z,17.00
2022-10-05T10:31:00.956Z,16.90
2022-10-05T10:33:53.803Z,16.90
2022-10-05T10:36:44.086Z,16.90
2022-10-05T10:39:32.761Z,16.90
2022-10-05T10:42:10.278Z,16.70
2022-10-05T10:44:47.269Z,16.80
2022-10-05T10:47:40.126Z,16.70
2022-10-05T10:50:41.124Z,16.80
2022-10-05T10:53:14.145Z,16.90
2022-10-05T10:56:05.936Z,16.90
2022-10-05T10:59:03.043Z,16.90
2022-10-05T11:01:57.030Z,16.70
2022-10-05T11:04:45.313Z,16.80
2022-10-05T11:07:30.717Z,16.70
2022-10-05T11:10:16.372Z,16.50
2022-10-05T11:13:01.375Z,16.50
2022-10-05T11:15:37.297Z,16.20
2022-10-05T11:18:45.953Z,16.00
2022-10-05T11:21:55.150Z,15.80
2022-10-05T11:24:54.782Z,15.70
2022-10-05T11:27:27.367Z,15.80
2022-10-05T11:29:59.284Z,15.80
2022-10-05T11:32:51.073Z,16.00
2022-10-05T11:35:51.015Z,16.30
2022-10-05T11:38:42.715Z,16.40
2022-10-05T11:41:15.906Z,16.90
2022-10-05T11:44:35.827Z,17.00
2022-10-05T11:47:31.481Z,17.20
2022-10-05T11:50:20.500Z,17.20
2022-10-05T11:52:59.383Z,17.20
2022-10-05T11:55:44.323Z,16.90
2022-10-05T11:58:27.940Z,16.90
2022-10-05T12:01:27.367Z,16.90
2022-10-05T12:04:20.692Z,16.80
2022-10-05T12:07:05.139Z,16.70
2022-10-05T12:10:21.342Z,16.60
2022-10-05T12:13:25.585Z,16.80
2022-10-05T12:16:05.810Z,16.80
2022-10-05T12:18:34.035Z,17.20
2022-10-05T12:21:22.834Z,17.20
2022-10-05T12:24:21.268Z,17.40
2022-10-05T12:27:09.878Z,17.80
2022-10-05T12:30:08.748Z,17.80
2022-10-05T12:32:48.330Z,17.50
2022-10-05T12:35:36.506Z,17.40
2022-10-05T12:38:30.882Z,17.20
2022-10-05T12:41:16.216Z,16.80
2022-10-05T12:43:48.016Z,16.70
2022-10-05T12:46:45.384Z,16.60
2022-10-05T12:49:42.073Z,16.40
2022-10-05T12:52:47.824Z,16.40
2022-10-05T12:55:33.556Z,16.40
2022-10-05T12:58:10.315Z,16.30
2022-10-05T13:00:45.933Z,16.30
2022-10-05T13:03:37.466Z,16.20
2022-10-05T13:06:30.355Z,16.10
2022-10-05T13:09:14.983Z,16.10
2022-10-05T13:11:42.794Z,16.00
2022-10-05T13:14:12.839Z,15.90
2022-10-05T13:16:50.222Z,15.80
2022-10-05T13:19:39.261Z,15.70
2022-10-05T13:22:27.848Z,15.60
2022-10-05T13:25:13.931Z,15.40
2022-10-05T13:27:54.307Z,15.30
2022-10-05T13:30:22.311Z,15.30
2022-10-05T13:33:15.406Z,15.20
2022-10-05T13:35:54.360Z,15.10
2022-10-05T13:38:47.664Z,15.00
2022-10-05T13:41:48.631Z,14.70
2022-10-05T13:44:28.016Z,14.70
2022-10-05T13:47:25.360Z,14.60
2022-10-05T13:50:21.603Z,14.40
2022-10-05T13:53:00.455Z,14.40
2022-10-05T13:55:53.353Z,14.30
2022-10-05T13:58:25.953Z,14.30
2022-10-05T14:01:01.559Z,14.30
2022-10-05T14:03:37.222Z,14.10
2022-10-05T14:06:27.651Z,14.00
2022-10-05T14:08:55.196Z,14.00
2022-10-05T14:11:35.511Z,13.90
2022-10-05T14:14:23.664Z,13.80
2022-10-05T14:16:59.279Z,13.70
2022-10-05T14:19:32.432Z,13.60
2022-10-05T14:22:22.500Z,13.70
2022-10-05T14:25:07.522Z,13.70
2022-10-05T14:27:55.087Z,13.60
2022-10-05T14:30:25.775Z,13.60
2022-10-05T14:33:03.656Z,13.60
2022-10-05T14:35:49.157Z,13.70
2022-10-05T14:38:23.051Z,13.60
2022-10-05T14:41:08.296Z,13.60
2022-10-05T14:43:35.768Z,13.80
2022-10-05T14:46:16.614Z,13.80
2022-10-05T14:48:45.430Z,13.80
2022-10-05T14:51:34.797Z,13.80
2022-10-05T14:54:23.047Z,13.90
2022-10-05T14:57:07.434Z,14.00
2022-10-05T14:59:50.417Z,14.00
2022-10-05T15:02:38.890Z,13.90
2022-10-05T15:05:17.099Z,13.80
2022-10-05T15:07:48.283Z,13.80
2022-10-05T15:10:34.285Z,13.70
2022-10-05T15:13:19.696Z,13.60
2022-10-05T15:16:03.077Z,13.60
2022-10-05T15:18:51.365Z,13.50
2022-10-05T15:21:30.022Z,13.50
2022-10-05T15:24:02.791Z,13.40
2022-10-05T15:26:52.803Z,13.30
2022-10-05T15:29:56.477Z,13.20
2022-10-05T15:32:34.895Z,13.20
2022-10-05T15:35:23.067Z,13.10
2022-10-05T15:37:59.820Z,13.00
2022-10-05T15:40:35.468Z,12.90
2022-10-05T15:43:16.474Z,12.90
2022-10-05T15:46:06.892Z,13.00
2022-10-05T15:48:42.392Z,13.10
2022-10-05T15:51:35.118Z,13.20
2022-10-05T15:54:20.700Z,13.30
2022-10-05T15:56:59.397Z,13.40
2022-10-05T15:59:54.061Z,13.50
2022-10-05T16:02:41.594Z,13.60
2022-10-05T16:05:47.176Z,13.60
2022-10-05T16:08:48.483Z,13.70
2022-10-05T16:11:19.893Z,13.70
2022-10-05T16:14:13.133Z,13.70
2022-10-05T16:17:04.094Z,13.70
2022-10-05T16:19:48.102Z,13.60
2022-10-05T16:22:43.448Z,13.60
2022-10-05T16:25:23.535Z,13.60
2022-10-05T16:28:05.225Z,13.70
2022-10-05T16:30:58.857Z,13.80
2022-10-05T16:33:37.092Z,13.80
2022-10-05T16:36:22.787Z,13.90
2022-10-05T16:39:12.836Z,13.90
2022-10-05T16:42:06.561Z,13.90
2022-10-05T16:44:40.744Z,13.90
2022-10-05T16:47:48.024Z,13.90
2022-10-05T16:50:33.453Z,13.90
2022-10-05T16:53:19.161Z,13.90
2022-10-05T16:56:02.008Z,14.00
2022-10-05T16:58:49.668Z,14.00
2022-10-05T17:01:27.396Z,14.00
2022-10-05T17:04:00.148Z,13.90
2022-10-05T17:06:50.617Z,13.90
2022-10-05T17:09:29.838Z,13.90
2022-10-05T17:12:11.060Z,13.90
2022-10-05T17:15:06.680Z,13.80
2022-10-05T17:17:57.854Z,13.80
2022-10-05T17:20:43.423Z,13.80
2022-10-05T17:23:36.779Z,13.80
2022-10-05T17:26:40.994Z,13.80
2022-10-05T17:29:30.643Z,13.70
2022-10-05T17:32:12.436Z,13.80
2022-10-05T17:35:02.917Z,13.70
2022-10-05T17:38:05.480Z,13.70
2022-10-05T17:40:37.332Z,13.70
2022-10-05T17:43:26.843Z,13.70
2022-10-05T17:45:56.950Z,13.70
2022-10-05T17:48:44.348Z,13.70
2022-10-05T17:51:56.336Z,13.70
2022-10-05T17:55:08.741Z,13.70
2022-10-05T17:57:39.688Z,13.70
2022-10-05T18:00:40.791Z,13.70
2022-10-05T18:03:44.563Z,13.70
2022-10-05T18:06:31.864Z,13.80
2022-10-05T18:09:21.985Z,13.80
2022-10-05T18:12:30.323Z,13.80
2022-10-05T18:15:13.037Z,13.90
2022-10-05T18:17:51.414Z,13.90
2022-10-05T18:20:31.516Z,13.90
2022-10-05T18:23:01.640Z,13.80
2022-10-05T18:25:45.214Z,13.90
2022-10-05T18:28:41.067Z,13.90
2022-10-05T18:31:34.235Z,13.90
2022-10-05T18:34:13.392Z,13.90
2022-10-05T18:37:29.639Z,14.00
2022-10-05T18:40:24.977Z,14.10
2022-10-05T18:43:18.247Z,14.10
2022-10-05T18:46:19.610Z,14.20
2022-10-05T18:49:08.484Z,14.20
2022-10-05T18:52:14.301Z,14.30
2022-10-05T18:54:51.210Z,14.40
2022-10-05T18:57:43.141Z,14.50
2022-10-05T19:00:20.040Z,14.50
2022-10-05T19:03:11.039Z,14.50
2022-10-05T19:06:04.490Z,14.60
2022-10-05T19:08:55.003Z,14.50
2022-10-05T19:11:35.260Z,14.60
2022-10-05T19:14:18.476Z,14.60
2022-10-05T19:17:05.078Z,14.60
2022-10-05T19:19:42.750Z,14.60
2022-10-05T19:22:53.167Z,14.60
2022-10-05T19:25:37.510Z,14.70
2022-10-05T19:28:32.226Z,14.80
2022-10-05T19:31:24.780Z,14.80
2022-10-05T19:34:24.115Z,14.80
2022-10-05T19:37:30.999Z,14.80
2022-10-05T19:40:10.108Z,14.80
2022-10-05T19:42:55.649Z,14.90
2022-10-05T19:45:23.919Z,14.90
2022-10-05T19:48:26.238Z,14.90
2022-10-05T19:50:57.462Z,14.90
2022-10-05T19:53:31.035Z,14.90
2022-10-05T19:56:21.375Z,14.90
2022-10-05T19:58:50.279Z,14.90
2022-10-05T20:01:40.721Z,14.90
2022-10-05T20:04:09.665Z,14.90
2022-10-05T20:06:39.393Z,14.80
2022-10-05T20:09:20.915Z,14.90
2022-10-05T20:11:52.652Z,14.90
2022-10-05T20:14:28.964Z,15.00
2022-10-05T20:17:44.387Z,15.00
2022-10-05T20:20:47.062Z,15.00
2022-10-05T20:23:30.415Z,15.00
2022-10-05T20:26:15.949Z,15.00
2022-10-05T20:28:44.453Z,15.00
2022-10-05T20:31:12.523Z,15.00
2022-10-05T20:33:40.560Z,15.00
2022-10-05T20:36:08.708Z,15.00
2022-10-05T20:38:40.034Z,15.00
2022-10-05T20:41:08.300Z,15.00
2022-10-05T20:43:39.002Z,15.00
2022-10-05T20:46:07.646Z,15.00
2022-10-05T20:48:36.128Z,15.00
2022-10-05T20:51:03.058Z,15.00
2022-10-05T20:53:30.082Z,15.00
2022-10-05T20:55:59.866Z,15.00
2022-10-05T20:58:27.214Z,15.00
2022-10-05T21:01:14.205Z,15.00
2022-10-05T21:03:42.751Z,15.00
2022-10-05T21:06:10.280Z,15.00
2022-10-05T21:08:38.290Z,15.00
2022-10-05T21:11:11.286Z,15.00
2022-10-05T21:13:44.629Z,15.00
2022-10-05T21:16:16.884Z,15.00
2022-10-05T21:18:46.967Z,15.00
2022-10-05T21:21:15.371Z,15.00
2022-10-05T21:23:42.371Z,14.90
2022-10-05T21:26:11.768Z,14.90
2022-10-05T21:28:39.952Z,14.80
2022-10-05T21:31:08.350Z,14.80
2022-10-05T21:33:36.034Z,14.80
2022-10-05T21:36:03.821Z,14.70
2022-10-05T21:38:31.082Z,14.70
2022-10-05T21:40:58.250Z,14.70
2022-10-05T21:43:25.703Z,14.70
2022-10-05T21:45:55.351Z,14.70
2022-10-05T21:48:23.395Z,14.80
2022-10-05T21:50:50.364Z,14.70
2022-10-05T21:53:21.148Z,14.70
2022-10-05T21:55:50.113Z,14.80
2022-10-05T21:58:19.295Z,14.70
2022-10-05T22:00:47.370Z,14.80
2022-10-05T22:03:14.400Z,14.80
2022-10-05T22:05:41.694Z,14.70
2022-10-05T22:08:22.398Z,14.80
2022-10-05T22:10:49.966Z,14.80
2022-10-05T22:13:17.825Z,14.90
2022-10-05T22:15:44.884Z,14.90
2022-10-05T22:18:18.293Z,15.00
2022-10-05T22:20:46.142Z,15.10
2022-10-05T22:23:13.196Z,15.10
2022-10-05T22:25:40.512Z,15.10
2022-10-05T22:28:11.184Z,15.20
2022-10-05T22:30:38.832Z,15.30
2022-10-05T22:33:05.983Z,15.30
2022-10-05T22:35:37.764Z,15.20
2022-10-05T22:38:04.796Z,15.30
2022-10-05T22:40:32.245Z,15.40
2022-10-05T22:42:59.343Z,15.50
2022-10-05T22:45:31.660Z,15.50
2022-10-05T22:47:59.442Z,15.50
2022-10-05T22:50:26.475Z,15.60
2022-10-05T22:52:53.492Z,15.60
2022-10-05T22:55:20.793Z,15.70
2022-10-05T22:57:49.395Z,15.70
2022-10-05T23:00:17.407Z,15.80
2022-10-05T23:02:45.454Z,15.80
2022-10-05T23:05:17.177Z,15.80
2022-10-05T23:07:46.770Z,15.80
2022-10-05T23:10:16.634Z,15.80
2022-10-05T23:12:44.408Z,15.80
2022-10-05T23:15:11.993Z,15.80
2022-10-05T23:17:39.597Z,15.90
2022-10-05T23:20:08.140Z,15.90
2022-10-05T23:22:38.940Z,15.90
2022-10-05T23:25:07.297Z,15.90
2022-10-05T23:27:38.636Z,15.90
2022-10-05T23:30:07.438Z,15.90
2022-10-05T23:32:39.444Z,15.90
2022-10-05T23:35:08.215Z,15.90
2022-10-05T23:37:39.962Z,15.90
2022-10-05T23:40:09.071Z,15.90
2022-10-05T23:42:36.069Z,16.00
2022-10-05T23:45:03.240Z,16.00
2022-10-05T23:47:30.792Z,15.90
2022-10-05T23:49:57.762Z,16.00
2022-10-05T23:52:24.970Z,16.00
2022-10-05T23:54:51.895Z,16.00
2022-10-05T23:57:19.577Z,16.00
2022-10-05T23:59:46.535Z,16.00
